logo
Search for airport 
image banner adimage banner adimage banner ad
image banner ad

EDAG - Grossrueckerswalde

Located in Marienberg, Germany

ICAO - EDAG, IATA -

Data provided by Airmate  

General information

Coordinates: N50°38'38" E13°7'35"
Elevation is 2198 feet MSL.
Magnetic variation is 4.0000° East
View others Airports in Saxony

Operational data

Special qualification required
Current time UTC:
Current local time:
Weather at : LKKV - Karlovy Vary ( 51 km )
METAR: LKKV 170100Z VRB02KT CAVOK 13/10 Q1014
TAF: TAF LKKV 162300Z 1700/1800 VRB02KT CAVOK TEMPO 1704/1710 19006KT 8000 -RA BKN017 TEMPO 1710/1718 5000 SHRA SCT015TCU TEMPO 1718/1800 8000 -RA BKN014
View NOTAMs / SUP AIP / TFR affecting this airport [VIEW]
Communications frequencies: [VIEW]

Runways:

RWY identifierQFULength (ft)Width (ft)SurfaceLDA (ft)
11111°3281131GRASS2789
29291°3281131GRASS3281

Airport contact information

Address: Marienberg Germany

Satellite view of EDAG